Time;durP1;ratioP1;P1;durP2;ratioP2;P2;SDS_P1;SDS_P2;PMS_P1;PMS_P2;Temp;Humidity;BMP_temperature;BMP_pressure;BME280_temperature;BME280_humidity;BME280_pressure;Samples;Min_cycle;Max_cycle;Signal;HPM_P1;HPM_P2
2021/01/13 05:06:49;;;;;;;14.70;8.07;;;;;;;6.33;60.59;98956.69;6822126;29;20310;-74
2021/01/13 05:10:14;;;;;;;11.70;8.47;;;;;;;6.34;60.67;98945.81;6812974;29;20230;-74
2021/01/13 05:13:36;;;;;;;9.27;7.97;;;;;;;6.63;60.34;98953.16;6838132;29;20219;-74
2021/01/13 05:17:02;;;;;;;15.03;7.60;;;;;;;6.54;60.27;98963.09;6838321;29;20215;-74
2021/01/13 05:20:25;;;;;;;12.57;8.67;;;;;;;6.64;60.43;98970.91;6840128;28;20210;-73
2021/01/13 05:23:49;;;;;;;12.03;9.37;;;;;;;6.33;60.26;98970.91;6826083;28;20276;-74
2021/01/13 05:27:36;;;;;;;14.30;9.73;;;;;;;5.90;62.21;98974.06;6831944;28;20549;-74
2021/01/13 05:30:59;;;;;;;11.07;7.93;;;;;;;6.10;62.41;98970.00;6821908;29;20635;-74
2021/01/13 05:34:21;;;;;;;12.67;8.03;;;;;;;6.43;61.71;98960.81;6838515;29;20205;-73
2021/01/13 05:37:48;;;;;;;9.87;7.70;;;;;;;6.65;61.03;98965.38;6838771;29;20222;-74
2021/01/13 05:41:11;;;;;;;8.60;7.00;;;;;;;6.72;59.80;98960.97;6815048;29;20203;-73
2021/01/13 05:44:33;;;;;;;13.37;8.27;;;;;;;6.74;59.58;98953.59;6816046;29;20224;-73
2021/01/13 05:47:55;;;;;;;11.90;8.03;;;;;;;6.56;60.00;98949.53;6836121;29;20213;-73
2021/01/13 05:51:27;;;;;;;10.23;8.63;;;;;;;6.64;59.73;98963.72;6837676;29;20239;-74
2021/01/13 05:54:54;;;;;;;10.83;8.50;;;;;;;6.64;59.69;98947.63;6838519;29;20346;-73
2021/01/13 05:58:21;;;;;;;18.53;9.77;;;;;;;6.01;60.48;98948.81;6835649;29;20221;-73
2021/01/13 06:01:46;;;;;;;12.13;9.57;;;;;;;6.15;61.04;98946.22;6836658;29;20206;-71
2021/01/13 06:05:08;;;;;;;13.53;9.47;;;;;;;6.37;60.63;98953.47;6853820;28;20233;-71
2021/01/13 06:08:31;;;;;;;13.43;9.23;;;;;;;6.21;61.26;98955.41;6864422;28;20206;-71
2021/01/13 06:11:53;;;;;;;15.53;8.53;;;;;;;5.94;62.19;98947.78;6850728;28;20229;-71
2021/01/13 06:15:23;;;;;;;11.80;7.73;;;;;;;6.14;61.54;98960.59;6843352;28;20205;-70
2021/01/13 06:18:45;;;;;;;10.03;8.50;;;;;;;6.57;61.18;98957.41;6861911;28;20654;-72
2021/01/13 06:22:08;;;;;;;15.43;8.53;;;;;;;6.52;60.18;98959.75;6836016;29;20207;-72
2021/01/13 06:25:30;;;;;;;14.43;9.47;;;;;;;6.10;60.81;98947.75;6848301;28;20241;-72
2021/01/13 06:29:27;;;;;;;11.17;9.63;;;;;;;5.90;60.65;98901.81;6835920;29;20209;-73
2021/01/13 06:32:53;;;;;;;15.17;8.83;;;;;;;6.54;60.34;98973.00;6840471;28;20236;-73
2021/01/13 06:36:28;;;;;;;10.67;8.37;;;;;;;6.57;60.05;98970.78;6837795;28;20709;-73
2021/01/13 06:39:50;;;;;;;9.57;7.47;;;;;;;6.53;59.62;98972.13;6847251;28;20270;-73
2021/01/13 06:43:12;;;;;;;12.90;8.67;;;;;;;6.56;59.81;98974.47;6842978;28;20238;-73
2021/01/13 06:46:34;;;;;;;10.20;8.27;;;;;;;6.43;59.78;98976.06;6841805;29;20693;-73
2021/01/13 06:49:56;;;;;;;11.40;8.57;;;;;;;6.38;60.25;98989.94;6841826;29;20270;-73
2021/01/13 06:53:19;;;;;;;12.70;8.83;;;;;;;6.03;60.40;98995.78;6841677;29;20229;-73
2021/01/13 06:56:48;;;;;;;17.17;9.80;;;;;;;6.12;61.01;98983.19;6841382;29;20215;-74
2021/01/13 07:00:19;;;;;;;19.90;10.83;;;;;;;5.79;61.58;98989.63;6840672;29;20211;-72
2021/01/13 07:03:41;;;;;;;16.80;11.70;;;;;;;6.13;61.51;98982.22;6841436;29;20215;-72
2021/01/13 07:07:05;;;;;;;15.97;10.77;;;;;;;6.38;60.64;99000.66;6841205;29;20219;-73
2021/01/13 07:10:26;;;;;;;20.67;12.23;;;;;;;6.25;60.99;98995.03;6840710;29;20231;-72
2021/01/13 07:13:55;;;;;;;20.43;12.00;;;;;;;6.64;60.26;98985.16;6840203;29;20215;-73
2021/01/13 07:17:18;;;;;;;17.33;10.77;;;;;;;6.71;60.41;98987.97;6839545;29;20214;-75
2021/01/13 07:20:40;;;;;;;16.67;10.93;;;;;;;6.71;60.03;98980.75;6822354;29;20206;-74
2021/01/13 07:24:04;;;;;;;14.70;10.60;;;;;;;6.34;60.03;98985.13;6838121;28;20220;-73
2021/01/13 07:27:26;;;;;;;15.23;9.83;;;;;;;6.50;59.66;98993.94;6849636;28;20209;-73
2021/01/13 07:30:47;;;;;;;15.57;10.10;;;;;;;6.22;60.18;99008.78;6858051;28;20225;-73
2021/01/13 07:34:09;;;;;;;17.00;9.63;;;;;;;6.16;60.01;98988.03;6867093;28;20213;-73
2021/01/13 07:37:35;;;;;;;15.23;9.60;;;;;;;6.27;60.58;99010.91;6866885;28;20694;-73
2021/01/13 07:40:59;;;;;;;15.97;10.03;;;;;;;6.25;60.56;99018.31;6865298;28;20205;-73
2021/01/13 07:44:38;;;;;;;13.37;8.67;;;;;;;6.47;59.97;99023.72;6841672;28;20231;-73
2021/01/13 07:48:33;;;;;;;13.37;9.10;;;;;;;5.84;60.38;99032.78;6839637;29;20226;-73
2021/01/13 07:51:55;;;;;;;19.50;13.13;;;;;;;6.14;60.49;99026.69;6772742;28;20246;-73
2021/01/13 07:55:18;;;;;;;22.23;11.50;;;;;;;6.32;60.20;99032.66;6840342;28;20259;-73
2021/01/13 07:58:56;;;;;;;13.97;10.03;;;;;;;6.21;60.05;99023.16;6840523;28;20211;-74
2021/01/13 08:02:53;;;;;;;14.60;9.87;;;;;;;6.35;59.57;99030.47;6839642;29;20208;-74
2021/01/13 08:06:29;;;;;;;12.53;8.00;;;;;;;6.48;59.45;99028.06;6839293;28;20546;-74
2021/01/13 08:09:51;;;;;;;12.23;8.50;;;;;;;6.51;58.64;99027.72;6839150;28;20209;-74
2021/01/13 08:13:40;;;;;;;13.80;8.90;;;;;;;6.71;58.62;99037.00;6838977;29;20242;-74
2021/01/13 08:17:25;;;;;;;10.87;8.30;;;;;;;6.71;58.51;99034.31;6838838;29;20218;-74
2021/01/13 08:21:24;;;;;;;8.83;6.87;;;;;;;7.00;57.53;99034.50;6838614;29;20261;-74
2021/01/13 08:25:11;;;;;;;9.27;6.20;;;;;;;6.94;57.58;99045.94;6810776;29;20210;-74
2021/01/13 08:28:37;;;;;;;10.40;6.60;;;;;;;6.91;56.95;99046.28;6839252;29;20681;-74
2021/01/13 08:32:05;;;;;;;7.47;5.73;;;;;;;6.99;56.58;99034.66;6838839;29;20226;-74
2021/01/13 08:35:33;;;;;;;14.00;6.80;;;;;;;6.78;56.91;99045.19;6838563;29;20211;-75
2021/01/13 08:39:08;;;;;;;14.43;7.03;;;;;;;6.98;56.58;99055.28;6838941;29;20630;-75
2021/01/13 08:42:30;;;;;;;8.77;6.03;;;;;;;7.20;55.86;99061.69;6838293;29;20677;-74
2021/01/13 08:45:53;;;;;;;8.50;5.10;;;;;;;7.77;54.58;99068.31;6838757;29;20235;-74
2021/01/13 08:49:27;;;;;;;10.37;5.07;;;;;;;8.45;51.31;99063.59;6839014;29;20218;-74
2021/01/13 08:52:49;;;;;;;14.37;5.30;;;;;;;7.73;52.14;99037.47;6838240;29;20236;-75
2021/01/13 08:56:12;;;;;;;9.87;6.07;;;;;;;7.32;54.56;99057.59;6838631;29;20334;-75
2021/01/13 08:59:44;;;;;;;16.07;9.27;;;;;;;6.98;54.81;99074.06;6843802;28;20216;-75
2021/01/13 09:03:07;;;;;;;15.93;8.17;;;;;;;6.91;55.30;99057.00;6860108;28;20211;-75
2021/01/13 09:06:30;;;;;;;14.50;6.67;;;;;;;7.12;55.37;99069.75;6863864;28;20233;-75
2021/01/13 09:10:02;;;;;;;18.50;7.70;;;;;;;7.24;54.71;99063.00;6847311;28;20267;-75
2021/01/13 09:13:31;;;;;;;11.63;6.67;;;;;;;7.57;54.53;99053.69;6864669;28;20229;-73
2021/01/13 09:16:53;;;;;;;9.27;5.47;;;;;;;7.61;54.09;99063.06;6843793;28;20212;-75
2021/01/13 09:20:21;;;;;;;6.27;4.77;;;;;;;7.29;54.47;99050.72;6845367;28;20235;-75
2021/01/13 09:23:55;;;;;;;8.93;5.37;;;;;;;7.48;54.22;99054.78;6853388;28;20298;-74
2021/01/13 09:27:17;;;;;;;9.70;5.30;;;;;;;7.60;54.03;99053.34;6833655;29;20216;-75
2021/01/13 09:30:41;;;;;;;12.50;7.17;;;;;;;7.72;53.37;99065.31;6837230;29;20295;-75
2021/01/13 09:34:03;;;;;;;8.57;5.03;;;;;;;7.89;52.65;99059.63;6837325;29;20254;-74
2021/01/13 09:37:24;;;;;;;7.40;4.17;;;;;;;7.57;52.97;99067.13;6838008;29;20213;-74
2021/01/13 09:40:56;;;;;;;10.23;4.27;;;;;;;7.57;52.37;99067.13;6836529;29;20299;-74
2021/01/13 09:44:21;;;;;;;6.97;4.03;;;;;;;7.46;53.32;99046.91;6837165;29;20206;-73
2021/01/13 09:47:42;;;;;;;5.00;3.93;;;;;;;7.93;53.12;99079.72;6837051;29;20280;-73
2021/01/13 09:51:06;;;;;;;7.70;4.27;;;;;;;7.53;52.38;99023.72;6836526;29;20323;-74
2021/01/13 09:54:28;;;;;;;4.37;3.93;;;;;;;8.02;52.54;99080.47;6836939;29;20272;-74
2021/01/13 09:58:10;;;;;;;8.67;4.33;;;;;;;8.10;52.93;99080.41;6837490;29;20214;-72
2021/01/13 10:01:33;;;;;;;8.83;3.93;;;;;;;8.45;50.85;99069.81;6836357;29;20667;-74
2021/01/13 10:04:55;;;;;;;5.23;3.63;;;;;;;7.82;52.26;99053.31;6836627;29;20217;-74
2021/01/13 10:08:16;;;;;;;13.03;5.23;;;;;;;8.04;51.99;99056.97;6836436;29;20660;-74
2021/01/13 10:11:38;;;;;;;8.03;4.33;;;;;;;7.66;53.09;99047.25;6835888;29;20241;-72
2021/01/13 10:15:03;;;;;;;7.87;4.10;;;;;;;7.80;51.85;99055.34;6836500;28;20215;-74
2021/01/13 10:18:26;;;;;;;6.73;4.43;;;;;;;7.65;53.32;99045.56;6836051;29;20219;-74
2021/01/13 10:21:48;;;;;;;5.43;3.60;;;;;;;7.85;52.86;99038.69;6836112;29;20212;-74
2021/01/13 10:25:11;;;;;;;7.90;4.47;;;;;;;8.06;54.22;99053.06;6835996;29;20236;-75
2021/01/13 10:28:33;;;;;;;8.77;4.20;;;;;;;7.59;55.39;99046.28;6836407;29;20226;-73
2021/01/13 10:31:58;;;;;;;7.17;4.87;;;;;;;7.95;51.49;99039.28;6835510;29;20230;-73
2021/01/13 10:35:21;;;;;;;5.77;3.50;;;;;;;7.58;52.30;98980.25;6836091;29;20210;-74
2021/01/13 10:38:43;;;;;;;8.33;3.70;;;;;;;8.44;52.34;99038.56;6836016;29;20202;-74
2021/01/13 10:42:06;;;;;;;10.17;3.53;;;;;;;8.13;49.93;99000.28;6836253;29;20201;-73
2021/01/13 10:45:28;;;;;;;6.43;3.60;;;;;;;7.79;51.03;99021.44;6835289;29;20236;-76
2021/01/13 10:48:51;;;;;;;5.20;3.23;;;;;;;7.43;51.89;98923.88;6836139;29;20215;-73
2021/01/13 10:52:14;;;;;;;5.43;3.20;;;;;;;8.27;49.65;98999.50;6835592;29;20315;-73
2021/01/13 10:55:44;;;;;;;7.67;3.70;;;;;;;8.28;50.19;99011.06;6835408;29;20778;-72
2021/01/13 10:59:13;;;;;;;8.37;3.80;;;;;;;7.56;51.88;99030.56;6835711;29;20223;-72
2021/01/13 11:02:35;;;;;;;6.33;3.97;;;;;;;7.35;51.24;98945.41;6835346;29;20214;-72
2021/01/13 11:05:59;;;;;;;7.10;3.20;;;;;;;7.77;51.02;98959.09;6835541;29;20697;-72
2021/01/13 11:09:22;;;;;;;6.27;4.20;;;;;;;7.85;50.83;98999.25;6835513;29;20216;-72
2021/01/13 11:12:43;;;;;;;7.03;3.50;;;;;;;7.70;50.39;98917.91;6835131;29;20318;-70
2021/01/13 11:16:08;;;;;;;4.67;3.60;;;;;;;7.79;50.12;98914.09;6835471;29;20218;-70
2021/01/13 11:19:29;;;;;;;4.33;3.60;;;;;;;8.36;50.46;99019.06;6835749;29;20215;-70
2021/01/13 11:22:57;;;;;;;4.30;3.20;;;;;;;8.77;49.38;99009.47;6835097;29;20318;-70
2021/01/13 11:26:19;;;;;;;4.50;3.70;;;;;;;8.15;50.51;98984.84;6835662;28;20223;-70
2021/01/13 11:29:42;;;;;;;6.63;3.77;;;;;;;7.92;50.85;98989.47;6840133;29;20215;-71
2021/01/13 11:33:06;;;;;;;7.00;3.73;;;;;;;7.95;51.46;98978.34;6840297;29;20324;-71
2021/01/13 11:36:29;;;;;;;8.37;3.77;;;;;;;8.31;50.84;99003.47;6840438;29;20662;-71
2021/01/13 11:40:05;;;;;;;6.27;3.80;;;;;;;8.28;51.05;98919.75;6837133;28;20274;-70
2021/01/13 11:43:51;;;;;;;5.93;4.07;;;;;;;8.23;51.90;98997.38;6845230;28;20281;-71
2021/01/13 11:47:19;;;;;;;5.73;4.20;;;;;;;8.58;50.19;98949.06;6851765;28;20315;-70
2021/01/13 11:50:46;;;;;;;8.17;3.93;;;;;;;8.40;50.62;98975.50;6861217;28;20244;-70
2021/01/13 11:54:07;;;;;;;6.87;4.10;;;;;;;8.19;52.40;98986.13;6865880;28;20250;-71
2021/01/13 11:57:33;;;;;;;7.60;4.03;;;;;;;7.77;53.00;98921.50;6866394;28;20208;-71
2021/01/13 12:00:55;;;;;;;6.07;3.70;;;;;;;7.72;51.76;98904.31;6866196;28;20256;-71
2021/01/13 12:04:16;;;;;;;8.93;3.73;;;;;;;8.37;51.08;98935.56;6865832;28;20223;-71
2021/01/13 12:07:38;;;;;;;4.93;3.90;;;;;;;8.86;50.45;98962.59;6866099;28;20210;-70
2021/01/13 12:10:59;;;;;;;4.43;3.37;;;;;;;8.61;50.28;98927.19;6865219;28;20249;-72
2021/01/13 12:14:21;;;;;;;6.50;3.60;;;;;;;8.06;50.59;98875.88;6865653;28;20212;-71
2021/01/13 12:17:50;;;;;;;6.07;3.80;;;;;;;8.58;51.02;98953.59;6865854;28;20732;-71
2021/01/13 12:21:29;;;;;;;9.27;3.80;;;;;;;8.68;50.84;98943.38;6865495;28;20252;-72
2021/01/13 12:24:50;;;;;;;7.63;4.13;;;;;;;9.00;49.58;98941.03;6865447;28;20218;-71
2021/01/13 12:28:12;;;;;;;6.97;3.53;;;;;;;8.49;48.84;98896.44;6865465;28;20220;-72
2021/01/13 12:31:35;;;;;;;3.77;2.90;;;;;;;8.82;48.46;98915.63;6864839;28;20322;-73
2021/01/13 12:34:57;;;;;;;6.70;2.90;;;;;;;8.84;47.57;98914.41;6865130;28;20299;-72
2021/01/13 12:38:18;;;;;;;6.33;2.80;;;;;;;8.52;48.59;98904.16;6865310;28;20235;-72
2021/01/13 12:41:40;;;;;;;6.53;4.10;;;;;;;8.70;47.75;98915.28;6865520;28;20249;-72
2021/01/13 12:45:01;;;;;;;3.70;3.03;;;;;;;7.37;47.46;98820.00;6851549;28;20214;-72
2021/01/13 12:48:24;;;;;;;4.20;2.90;;;;;;;8.16;47.50;98916.69;6838267;29;20224;-71
2021/01/13 12:51:51;;;;;;;3.67;2.63;;;;;;;8.84;47.16;98906.34;6837685;29;20225;-72
2021/01/13 12:55:12;;;;;;;4.27;2.60;;;;;;;8.47;47.13;98882.38;6840613;28;20266;-72
2021/01/13 12:58:34;;;;;;;3.50;2.40;;;;;;;7.98;47.85;98883.19;6850061;28;20207;-72
2021/01/13 13:01:55;;;;;;;4.03;2.53;;;;;;;8.37;47.38;98897.16;6838967;29;20210;-71
2021/01/13 13:05:17;;;;;;;4.37;2.80;;;;;;;8.28;46.34;98823.91;6838634;29;20221;-72
2021/01/13 13:08:39;;;;;;;5.70;3.30;;;;;;;8.59;46.83;98870.09;6838777;29;20212;-72
2021/01/13 13:12:00;;;;;;;7.73;3.77;;;;;;;8.69;46.81;98854.50;6838904;29;20283;-72
2021/01/13 13:15:21;;;;;;;4.37;2.60;;;;;;;8.21;48.30;98814.09;6854521;28;20211;-73
2021/01/13 13:18:43;;;;;;;2.70;2.50;;;;;;;8.38;46.75;98824.41;6865649;28;20209;-73
2021/01/13 13:22:05;;;;;;;3.63;2.30;;;;;;;8.24;47.33;98840.59;6859078;28;20201;-73
2021/01/13 13:25:26;;;;;;;5.40;2.40;;;;;;;8.75;46.57;98858.28;6839068;29;20211;-73
2021/01/13 13:28:48;;;;;;;3.50;2.30;;;;;;;8.89;46.09;98825.13;6839170;28;20275;-73
2021/01/13 13:32:12;;;;;;;4.77;2.60;;;;;;;8.51;47.67;98792.31;6838604;29;20709;-73
2021/01/13 13:35:35;;;;;;;5.47;2.67;;;;;;;9.22;46.31;98854.75;6839155;29;20672;-73
2021/01/13 13:38:57;;;;;;;2.73;2.53;;;;;;;9.39;46.04;98826.53;6838711;29;20211;-74
2021/01/13 13:42:18;;;;;;;2.63;2.23;;;;;;;9.97;44.53;98858.34;6838988;29;20223;-73
2021/01/13 13:45:40;;;;;;;4.27;2.50;;;;;;;9.95;43.53;98811.94;6839085;28;20336;-73
2021/01/13 13:49:01;;;;;;;5.80;2.10;;;;;;;8.74;43.29;98758.00;6838528;28;20215;-73
2021/01/13 13:52:23;;;;;;;2.37;2.17;;;;;;;8.85;43.63;98738.63;6837793;28;20234;-73
2021/01/13 13:55:48;;;;;;;4.33;2.00;;;;;;;9.38;43.27;98829.41;6840279;28;20210;-73
2021/01/13 13:59:10;;;;;;;2.10;1.97;;;;;;;9.26;43.19;98844.44;6838436;29;20292;-72
2021/01/13 14:02:32;;;;;;;5.10;1.90;;;;;;;9.45;42.86;98820.34;6858206;28;20570;-71
2021/01/13 14:05:54;;;;;;;4.93;2.53;;;;;;;9.27;41.96;98763.53;6862400;28;20216;-73
2021/01/13 14:09:18;;;;;;;3.40;2.13;;;;;;;9.13;42.06;98781.66;6864430;28;20286;-71
2021/01/13 14:12:41;;;;;;;4.13;2.00;;;;;;;9.24;42.78;98773.88;6863884;28;20239;-73
2021/01/13 14:16:02;;;;;;;3.80;2.30;;;;;;;8.79;42.87;98776.22;6864779;28;20215;-73
2021/01/13 14:19:23;;;;;;;12.17;6.20;;;;;;;8.87;42.92;98755.41;6864316;28;20211;-73
2021/01/13 14:22:45;;;;;;;8.10;4.63;;;;;;;8.21;43.86;98686.03;6863365;28;20288;-73
2021/01/13 14:26:06;;;;;;;7.67;4.30;;;;;;;8.38;43.92;98733.06;6864706;28;20297;-73
2021/01/13 14:29:29;;;;;;;6.80;3.10;;;;;;;8.58;43.74;98805.78;6864464;28;20211;-73
2021/01/13 14:32:52;;;;;;;5.33;3.00;;;;;;;8.78;43.94;98782.63;6863795;28;20236;-73
2021/01/13 14:36:14;;;;;;;2.33;2.13;;;;;;;8.38;44.16;98714.25;6863870;28;20648;-72
2021/01/13 14:39:36;;;;;;;3.60;2.50;;;;;;;8.10;44.27;98721.44;6864050;28;20207;-72
2021/01/13 14:43:01;;;;;;;4.13;2.53;;;;;;;8.59;43.46;98754.56;6863926;28;20211;-72
2021/01/13 14:46:24;;;;;;;3.00;2.40;;;;;;;8.54;44.26;98805.34;6858133;28;20204;-73
2021/01/13 14:49:45;;;;;;;3.47;2.57;;;;;;;8.55;43.45;98755.97;6838178;28;20663;-73
2021/01/13 14:53:07;;;;;;;5.57;2.90;;;;;;;9.10;43.22;98797.16;6837038;28;20233;-72
2021/01/13 14:56:30;;;;;;;5.73;3.03;;;;;;;8.74;43.37;98760.69;6837325;28;20211;-73
2021/01/13 14:59:52;;;;;;;8.20;2.73;;;;;;;8.66;43.26;98784.19;6854698;28;20216;-73
2021/01/13 15:03:14;;;;;;;4.47;2.70;;;;;;;8.20;45.06;98777.53;6844414;28;20235;-73
2021/01/13 15:06:35;;;;;;;6.63;2.97;;;;;;;7.84;44.70;98677.38;6868761;28;20201;-74
2021/01/13 15:09:57;;;;;;;6.60;2.90;;;;;;;7.66;45.28;98687.72;6868383;28;20270;-73
2021/01/13 15:13:18;;;;;;;4.97;3.00;;;;;;;8.15;44.28;98678.72;6850870;28;20322;-73
2021/01/13 15:16:39;;;;;;;6.23;3.70;;;;;;;7.57;44.77;98641.38;6841928;29;20213;-72
2021/01/13 15:20:02;;;;;;;8.73;4.13;;;;;;;8.47;44.91;98748.03;6841983;28;20215;-73
2021/01/13 15:23:23;;;;;;;5.60;2.97;;;;;;;8.17;44.52;98687.41;6846709;28;20265;-73
2021/01/13 15:26:45;;;;;;;2.93;2.63;;;;;;;8.19;45.39;98744.44;6867671;28;20295;-74
2021/01/13 15:30:08;;;;;;;3.93;2.97;;;;;;;8.38;45.26;98745.69;6847913;28;20205;-74
2021/01/13 15:33:29;;;;;;;6.50;3.10;;;;;;;8.40;45.39;98743.63;6842863;28;20233;-72
2021/01/13 15:36:51;;;;;;;5.03;3.50;;;;;;;7.70;45.72;98678.25;6843158;29;20210;-74
2021/01/13 15:40:13;;;;;;;4.10;2.90;;;;;;;8.11;45.75;98755.31;6843742;28;20210;-73
2021/01/13 15:43:34;;;;;;;2.97;2.77;;;;;;;8.15;45.29;98702.03;6842290;28;20204;-74
2021/01/13 15:46:56;;;;;;;5.97;3.33;;;;;;;7.84;46.66;98741.78;6842431;28;20577;-74
2021/01/13 15:50:18;;;;;;;7.03;4.00;;;;;;;7.53;46.52;98684.84;6841897;29;20704;-74
2021/01/13 15:53:42;;;;;;;4.30;3.57;;;;;;;7.42;47.44;98696.91;6841523;29;20237;-74
2021/01/13 15:57:05;;;;;;;8.03;3.80;;;;;;;7.69;47.58;98746.34;6841460;29;20215;-73
2021/01/13 16:00:27;;;;;;;9.77;3.60;;;;;;;7.25;47.70;98665.97;6840824;28;20209;-74
2021/01/13 16:03:49;;;;;;;5.87;4.13;;;;;;;8.09;47.08;98721.63;6841347;28;20220;-74
2021/01/13 16:07:10;;;;;;;4.40;4.00;;;;;;;7.83;46.65;98703.38;6861642;28;20196;-73
2021/01/13 16:10:35;;;;;;;3.33;3.10;;;;;;;7.99;46.52;98692.41;6867686;28;20215;-74
2021/01/13 16:14:00;;;;;;;3.20;2.90;;;;;;;8.24;45.20;98682.94;6867510;28;20294;-75
2021/01/13 16:17:21;;;;;;;4.63;3.40;;;;;;;7.72;46.42;98698.50;6867672;28;20224;-74
2021/01/13 16:20:43;;;;;;;7.07;3.37;;;;;;;8.08;45.93;98655.50;6867126;28;20207;-73
2021/01/13 16:24:06;;;;;;;3.83;3.17;;;;;;;8.05;45.49;98635.25;6867179;28;20236;-74
2021/01/13 16:27:29;;;;;;;3.87;3.47;;;;;;;8.47;45.59;98677.34;6866474;28;20211;-74
2021/01/13 16:30:53;;;;;;;4.50;3.07;;;;;;;7.83;45.36;98616.69;6843059;28;20203;-71
2021/01/13 16:34:18;;;;;;;4.87;3.10;;;;;;;8.05;45.81;98646.00;6840309;28;20197;-73
2021/01/13 16:37:40;;;;;;;5.17;3.03;;;;;;;7.78;46.02;98603.81;6839724;29;20209;-73
2021/01/13 16:41:02;;;;;;;3.73;3.27;;;;;;;7.75;47.23;98632.88;6840726;28;20215;-73
2021/01/13 16:44:24;;;;;;;6.13;3.30;;;;;;;7.96;47.22;98649.81;6841035;28;20209;-73
2021/01/13 16:47:46;;;;;;;4.27;3.73;;;;;;;7.71;46.97;98589.50;6840144;29;20219;-73
2021/01/13 16:51:08;;;;;;;10.97;6.00;;;;;;;7.95;47.85;98637.41;6840223;29;20552;-73
2021/01/13 16:54:30;;;;;;;11.37;6.20;;;;;;;8.14;47.38;98630.56;6839542;28;20220;-73
2021/01/13 16:57:52;;;;;;;8.50;5.43;;;;;;;7.42;48.63;98564.69;6840162;29;20216;-73
2021/01/13 17:01:20;;;;;;;5.00;4.50;;;;;;;7.12;48.77;98539.81;6839730;28;20711;-73
2021/01/13 17:04:41;;;;;;;8.43;5.70;;;;;;;7.23;48.80;98543.81;6858190;28;20833;-73
2021/01/13 17:08:03;;;;;;;5.83;5.27;;;;;;;7.80;49.17;98625.09;6866242;28;20260;-73
2021/01/13 17:11:24;;;;;;;8.20;6.50;;;;;;;7.71;49.70;98612.84;6857165;28;20232;-74
2021/01/13 17:14:46;;;;;;;10.03;6.63;;;;;;;7.67;50.14;98604.31;6839152;29;20218;-73
2021/01/13 17:18:11;;;;;;;8.10;6.33;;;;;;;7.16;50.63;98580.47;6837583;28;20218;-73
2021/01/13 17:21:32;;;;;;;12.13;6.77;;;;;;;6.84;51.25;98549.56;6852227;28;20298;-73
2021/01/13 17:24:54;;;;;;;7.80;6.33;;;;;;;6.69;51.87;98556.81;6857139;28;20205;-74
2021/01/13 17:28:16;;;;;;;8.80;6.20;;;;;;;6.34;52.72;98548.69;6864089;28;20262;-73
2021/01/13 17:31:38;;;;;;;8.03;5.57;;;;;;;6.05;54.72;98596.84;6864370;28;20233;-73
2021/01/13 17:35:03;;;;;;;6.17;5.50;;;;;;;6.66;53.39;98605.38;6844767;28;20208;-73
2021/01/13 17:38:25;;;;;;;9.13;6.80;;;;;;;6.53;53.32;98548.13;6838690;28;20216;-73
2021/01/13 17:41:49;;;;;;;9.83;6.37;;;;;;;6.42;54.07;98575.41;6843819;28;20200;-73
2021/01/13 17:45:11;;;;;;;6.87;5.37;;;;;;;6.35;52.94;98524.44;6841609;28;20203;-74
2021/01/13 17:48:33;;;;;;;7.40;5.37;;;;;;;6.82;52.81;98601.69;6841918;28;20238;-73
2021/01/13 17:51:57;;;;;;;8.27;5.40;;;;;;;6.70;51.53;98539.72;6853305;28;20232;-73
2021/01/13 17:55:25;;;;;;;7.07;5.50;;;;;;;6.77;53.25;98575.47;6840676;28;20219;-73
2021/01/13 17:58:46;;;;;;;7.07;5.30;;;;;;;6.91;52.90;98601.44;6851070;28;20283;-73
2021/01/13 18:02:10;;;;;;;7.17;5.03;;;;;;;7.16;52.07;98577.78;6848383;28;20205;-74
2021/01/13 18:05:32;;;;;;;6.53;5.67;;;;;;;7.35;51.28;98583.38;6854151;28;20230;-72
2021/01/13 18:08:55;;;;;;;8.33;5.70;;;;;;;6.81;51.39;98498.22;6841320;28;20820;-74
2021/01/13 18:12:17;;;;;;;5.40;4.70;;;;;;;7.18;52.49;98584.63;6848484;28;20219;-74
2021/01/13 18:15:39;;;;;;;5.27;4.77;;;;;;;7.08;52.52;98578.72;6843163;28;20218;-74
2021/01/13 18:19:00;;;;;;;5.40;4.90;;;;;;;7.25;52.91;98590.06;6837356;29;20263;-73
2021/01/13 18:22:21;;;;;;;5.87;5.33;;;;;;;6.77;53.50;98548.66;6838057;29;20217;-73
2021/01/13 18:25:46;;;;;;;5.97;4.57;;;;;;;7.08;53.95;98583.28;6837672;29;20207;-73
2021/01/13 18:29:19;;;;;;;4.57;4.17;;;;;;;7.24;54.58;98562.41;6837529;29;20225;-73
2021/01/13 18:32:45;;;;;;;4.93;4.53;;;;;;;7.28;54.28;98522.63;6837415;28;20206;-74
2021/01/13 18:36:07;;;;;;;7.73;5.17;;;;;;;6.73;56.10;98483.06;6863746;28;20257;-74
2021/01/13 18:39:29;;;;;;;5.30;4.83;;;;;;;7.53;56.08;98526.59;6856492;28;20237;-74
2021/01/13 18:42:59;;;;;;;6.30;4.97;;;;;;;7.46;55.69;98488.16;6854878;28;20212;-74
2021/01/13 18:46:20;;;;;;;6.50;5.40;;;;;;;7.99;55.57;98560.00;6851092;28;20235;-75
2021/01/13 18:49:41;;;;;;;13.20;9.27;;;;;;;7.93;55.80;98529.44;6836982;28;20210;-74
2021/01/13 18:53:03;;;;;;;6.73;5.73;;;;;;;7.96;56.68;98549.69;6837610;29;20263;-75
2021/01/13 18:56:25;;;;;;;6.67;6.07;;;;;;;7.99;55.25;98477.63;6837182;28;20211;-76
2021/01/13 18:59:47;;;;;;;5.30;4.80;;;;;;;7.59;55.38;98405.09;6864233;28;20677;-76
2021/01/13 19:03:08;;;;;;;5.83;5.23;;;;;;;7.50;55.79;98447.38;6843939;28;20205;-76
2021/01/13 19:06:34;;;;;;;5.20;4.60;;;;;;;7.96;55.10;98458.41;6846779;28;20663;-74
2021/01/13 19:09:55;;;;;;;6.40;5.50;;;;;;;7.64;55.65;98429.50;6863931;28;20214;-76
2021/01/13 19:13:17;;;;;;;7.20;6.00;;;;;;;8.02;55.42;98450.38;6852236;28;20230;-80
2021/01/13 19:16:40;;;;;;;9.00;7.07;;;;;;;7.84;55.41;98455.44;6837527;29;20239;-74
2021/01/13 19:20:01;;;;;;;13.00;7.53;;;;;;;7.93;55.07;98435.47;6837404;29;20599;-75
2021/01/13 19:23:22;;;;;;;11.23;9.67;;;;;;;7.36;56.93;98461.66;6837329;29;20588;-75
2021/01/13 19:26:44;;;;;;;14.70;11.50;;;;;;;7.30;58.51;98489.25;6837831;29;20216;-74
2021/01/13 19:30:08;;;;;;;17.10;11.13;;;;;;;7.72;57.04;98446.28;6838485;28;20217;-75
2021/01/13 19:33:30;;;;;;;15.93;11.10;;;;;;;7.44;57.70;98439.25;6862882;28;20667;-76
2021/01/13 19:36:52;;;;;;;11.60;9.13;;;;;;;8.23;56.71;98489.78;6862817;28;20211;-75
2021/01/13 19:40:14;;;;;;;9.30;8.30;;;;;;;7.35;56.82;98425.16;6862429;28;20208;-73
2021/01/13 19:43:35;;;;;;;8.97;8.03;;;;;;;7.63;57.13;98438.56;6863195;28;20220;-74
2021/01/13 19:46:56;;;;;;;11.53;9.30;;;;;;;7.90;56.61;98421.63;6862678;28;20236;-74
2021/01/13 19:50:19;;;;;;;11.67;9.63;;;;;;;8.25;56.29;98485.06;6866359;28;20211;-72
2021/01/13 19:53:41;;;;;;;11.73;9.13;;;;;;;8.44;55.50;98471.72;6868100;28;20229;-73
2021/01/13 19:57:03;;;;;;;12.13;9.23;;;;;;;7.41;57.40;98436.94;6867428;28;20215;-75
2021/01/13 20:00:24;;;;;;;11.27;8.97;;;;;;;8.00;57.17;98457.81;6867947;28;20851;-73
2021/01/13 20:03:46;;;;;;;13.90;10.93;;;;;;;7.66;57.20;98422.09;6867303;28;20224;-73
2021/01/13 20:07:08;;;;;;;13.07;10.10;;;;;;;7.62;58.55;98436.91;6861151;28;20190;-73
2021/01/13 20:10:30;;;;;;;7.40;6.67;;;;;;;7.34;59.05;98412.78;6841938;28;20206;-71
2021/01/13 20:13:51;;;;;;;11.53;8.83;;;;;;;7.72;59.54;98457.00;6866518;28;20259;-71
2021/01/13 20:17:13;;;;;;;9.60;7.60;;;;;;;7.30;60.71;98449.03;6857980;28;20216;-74
2021/01/13 20:20:35;;;;;;;10.53;8.10;;;;;;;7.87;59.76;98455.06;6865444;28;20288;-74
2021/01/13 20:23:57;;;;;;;6.13;5.33;;;;;;;7.90;59.92;98457.34;6866257;28;20214;-74
2021/01/13 20:27:18;;;;;;;6.77;5.27;;;;;;;8.33;58.67;98455.34;6865366;28;20219;-74
2021/01/13 20:30:39;;;;;;;6.60;5.90;;;;;;;8.56;57.43;98439.75;6864927;28;20243;-74
2021/01/13 20:34:01;;;;;;;9.57;6.57;;;;;;;8.69;57.27;98443.31;6865092;28;20239;-74
2021/01/13 20:37:24;;;;;;;8.10;6.57;;;;;;;8.41;57.10;98422.94;6865159;28;20251;-74
2021/01/13 20:40:47;;;;;;;12.10;8.63;;;;;;;8.37;57.14;98445.88;6865006;28;20595;-75
2021/01/13 20:44:08;;;;;;;10.50;8.83;;;;;;;8.03;58.25;98409.13;6865317;28;20210;-73
2021/01/13 20:47:29;;;;;;;7.67;6.73;;;;;;;8.13;58.87;98422.19;6865283;28;20626;-74
2021/01/13 20:50:50;;;;;;;7.03;6.33;;;;;;;7.46;60.03;98375.50;6865452;28;20266;-73
2021/01/13 20:54:12;;;;;;;8.10;5.87;;;;;;;8.48;58.72;98431.88;6865643;28;20232;-74
2021/01/13 20:57:34;;;;;;;6.93;6.17;;;;;;;7.55;60.95;98415.41;6865027;28;20746;-74
2021/01/13 21:00:55;;;;;;;7.90;6.97;;;;;;;7.87;59.81;98369.19;6863876;28;20293;-73
2021/01/13 21:04:17;;;;;;;7.40;6.70;;;;;;;8.56;58.99;98429.84;6846056;28;20219;-73
2021/01/13 21:07:39;;;;;;;12.33;9.07;;;;;;;8.62;57.98;98404.00;6837638;29;20210;-74
2021/01/13 21:11:01;;;;;;;12.50;7.50;;;;;;;8.38;57.79;98353.50;6842797;28;20264;-75
2021/01/13 21:14:23;;;;;;;9.33;7.90;;;;;;;7.24;61.25;98396.19;6837823;28;20234;-74